Wetterdaten: Woche 16.11.09 - 22.11.09 (KW47)
Datum Zeit Temp. A. Feuchte A. Luftdruck Regen Wind Richtung Taupunkt Windchill Windben
16.11.2009 00:00 5,8 C 89 % 1015,1 hPa 0,0 l/m 0,0 km/h N 4,2 C 5,8 C 0,0 km/h
16.11.2009 01:00 5,9 C 90 % 1014,8 hPa 0,0 l/m 0,0 km/h N 4,4 C 5,9 C 0,0 km/h
16.11.2009 02:00 6,0 C 90 % 1014,7 hPa 0,0 l/m 0,0 km/h N 4,5 C 6,0 C 0,4 km/h
16.11.2009 03:00 6,2 C 91 % 1014,5 hPa 0,0 l/m 0,0 km/h N 4,9 C 6,2 C 0,0 km/h
16.11.2009 04:00 6,1 C 91 % 1014,5 hPa 0,0 l/m 0,0 km/h N 4,8 C 6,1 C 0,0 km/h
16.11.2009 05:00 5,9 C 91 % 1014,4 hPa 0,0 l/m 0,0 km/h N 4,6 C 5,9 C 0,4 km/h
16.11.2009 06:00 6,1 C 91 % 1014,9 hPa 0,0 l/m 0,0 km/h N 4,7 C 6,1 C 0,0 km/h
16.11.2009 07:00 6,3 C 91 % 1015,2 hPa 0,0 l/m 0,0 km/h N 5,0 C 6,3 C 0,0 km/h
16.11.2009 08:00 7,0 C 92 % 1015,5 hPa 0,0 l/m 0,0 km/h N 5,8 C 7,0 C 0,0 km/h
16.11.2009 09:00 8,0 C 92 % 1015,4 hPa 0,0 l/m 0,1 km/h N 6,8 C 8,0 C 1,2 km/h
16.11.2009 10:00 9,3 C 87 % 1015,5 hPa 0,0 l/m 0,3 km/h N 7,1 C 9,3 C 2,8 km/h
16.11.2009 11:00 9,8 C 85 % 1015,3 hPa 0,0 l/m 0,5 km/h N 7,4 C 9,8 C 4,0 km/h
16.11.2009 12:00 10,3 C 84 % 1014,8 hPa 0,0 l/m 0,0 km/h N 7,6 C 10,3 C 2,4 km/h
16.11.2009 13:00 10,4 C 84 % 1014,7 hPa 0,0 l/m 0,0 km/h N 7,8 C 10,4 C 4,0 km/h
16.11.2009 14:00 10,5 C 84 % 1014,9 hPa 0,0 l/m 0,0 km/h N 7,9 C 10,5 C 1,6 km/h
16.11.2009 15:00 10,3 C 85 % 1014,9 hPa 0,0 l/m 0,1 km/h N 7,8 C 10,3 C 2,8 km/h
16.11.2009 16:00 10,1 C 85 % 1015,2 hPa 0,0 l/m 0,0 km/h N 7,7 C 10,1 C 0,4 km/h
16.11.2009 17:00 9,9 C 87 % 1015,4 hPa 0,0 l/m 0,1 km/h N 7,8 C 9,9 C 2,0 km/h
16.11.2009 18:00 9,9 C 86 % 1015,7 hPa 0,0 l/m 0,0 km/h N 7,7 C 9,9 C 1,2 km/h
16.11.2009 19:00 9,9 C 87 % 1015,7 hPa 0,0 l/m 0,4 km/h N 7,8 C 9,9 C 4,4 km/h
16.11.2009 20:00 9,9 C 87 % 1015,6 hPa 0,0 l/m 1,8 km/h S 7,8 C 9,9 C 8,8 km/h
16.11.2009 21:00 9,9 C 87 % 1015,7 hPa 0,0 l/m 1,0 km/h N 7,8 C 9,9 C 6,0 km/h
16.11.2009 22:00 9,7 C 87 % 1015,4 hPa 0,0 l/m 0,6 km/h N 7,7 C 9,7 C 5,6 km/h
16.11.2009 23:00 9,6 C 87 % 1015,5 hPa 0,0 l/m 0,1 km/h N 7,5 C 9,6 C 2,0 km/h
17.11.2009 00:00 9,1 C 88 % 1015,5 hPa 0,0 l/m 0,1 km/h N 7,2 C 9,1 C 1,6 km/h
17.11.2009 01:00 8,8 C 88 % 1015,5 hPa 0,0 l/m 0,0 km/h N 6,9 C 8,8 C 0,0 km/h
17.11.2009 02:00 8,7 C 89 % 1015,5 hPa 0,0 l/m 0,0 km/h N 7,0 C 8,7 C 0,4 km/h
17.11.2009 03:00 8,6 C 90 % 1015,7 hPa 0,0 l/m 0,0 km/h N 7,1 C 8,6 C 0,0 km/h
17.11.2009 04:00 8,6 C 90 % 1015,8 hPa 0,0 l/m 0,0 km/h N 7,0 C 8,6 C 0,0 km/h
17.11.2009 05:00 8,1 C 91 % 1016,0 hPa 0,0 l/m 0,0 km/h N 6,6 C 8,1 C 0,4 km/h
17.11.2009 06:00 7,5 C 91 % 1016,0 hPa 0,0 l/m 0,2 km/h N 6,0 C 7,5 C 3,6 km/h
17.11.2009 07:00 6,9 C 91 % 1016,3 hPa 0,0 l/m 0,0 km/h N 5,5 C 6,9 C 1,6 km/h
17.11.2009 08:00 6,9 C 92 % 1016,8 hPa 0,0 l/m 0,0 km/h N 5,7 C 6,9 C 1,6 km/h
17.11.2009 09:00 7,0 C 92 % 1017,1 hPa 0,0 l/m 0,0 km/h N 5,8 C 7,0 C 1,6 km/h
17.11.2009 10:00 7,6 C 93 % 1017,0 hPa 0,0 l/m 0,0 km/h N 6,5 C 7,6 C 2,4 km/h
17.11.2009 11:00 8,1 C 93 % 1016,3 hPa 0,0 l/m 0,0 km/h N 7,1 C 8,1 C 4,8 km/h
17.11.2009 12:00 8,4 C 93 % 1015,8 hPa 0,0 l/m 0,0 km/h N 7,3 C 8,4 C 7,2 km/h
17.11.2009 13:00 8,8 C 93 % 1015,5 hPa 0,0 l/m 0,8 km/h S-SO 7,7 C 8,8 C 6,4 km/h
17.11.2009 14:00 8,9 C 93 % 1015,5 hPa 0,0 l/m 1,6 km/h S 7,9 C 8,9 C 7,2 km/h
17.11.2009 15:00 8,9 C 93 % 1015,5 hPa 0,0 l/m 1,1 km/h S 7,9 C 8,9 C 5,3 km/h
17.11.2009 16:00 8,8 C 93 % 1015,6 hPa 0,0 l/m 1,0 km/h W-SW 7,7 C 8,8 C 6,8 km/h
17.11.2009 17:00 8,2 C 92 % 1015,4 hPa 0,0 l/m 0,4 km/h N 7,0 C 8,2 C 5,2 km/h
17.11.2009 18:00 7,7 C 92 % 1015,3 hPa 0,0 l/m 0,0 km/h N 6,5 C 7,7 C 0,8 km/h
17.11.2009 19:00 6,7 C 92 % 1015,3 hPa 0,0 l/m 0,0 km/h N 5,5 C 6,7 C 0,4 km/h
17.11.2009 20:00 5,7 C 92 % 1015,5 hPa 0,0 l/m 0,1 km/h N 4,5 C 5,7 C 0,8 km/h
17.11.2009 21:00 5,0 C 92 % 1015,9 hPa 0,0 l/m 0,0 km/h N 3,8 C 5,0 C 0,0 km/h
17.11.2009 22:00 4,8 C 93 % 1016,5 hPa 0,0 l/m 0,0 km/h N 3,7 C 4,8 C 0,8 km/h
17.11.2009 23:00 5,6 C 93 % 1016,7 hPa 0,0 l/m 0,1 km/h N 4,6 C 5,6 C 1,2 km/h
18.11.2009 00:00 5,7 C 93 % 1016,9 hPa 0,0 l/m 0,0 km/h N 4,6 C 5,7 C 1,2 km/h
18.11.2009 01:00 5,3 C 93 % 1017,2 hPa 0,0 l/m 0,2 km/h N 4,3 C 5,3 C 2,8 km/h
18.11.2009 02:00 9,9 C 92 % 1017,7 hPa 0,0 l/m 5,7 km/h W-SW 8,5 C 9,1 C 20,1 km/h
18.11.2009 03:00 17,2 C 63 % 1018,1 hPa 0,0 l/m 16,4 km/h W 10,0 C 13,4 C 38,2 km/h
18.11.2009 04:00 16,1 C 67 % 1018,3 hPa 0,0 l/m 16,3 km/h SW 9,9 C 12,2 C 39,8 km/h
18.11.2009 05:00 15,3 C 71 % 1019,0 hPa 0,0 l/m 15,9 km/h W-SW 10,0 C 11,3 C 36,2 km/h
18.11.2009 06:00 14,3 C 73 % 1020,2 hPa 0,0 l/m 12,2 km/h NW 9,5 C 11,5 C 30,2 km/h
18.11.2009 07:00 13,6 C 74 % 1021,7 hPa 0,0 l/m 5,4 km/h N-NW 9,1 C 13,6 C 12,4 km/h
18.11.2009 08:00 13,0 C 79 % 1022,8 hPa 0,0 l/m 4,0 km/h N-NW 9,3 C 13,0 C 12,1 km/h
18.11.2009 09:00 12,6 C 79 % 1023,5 hPa 0,0 l/m 4,8 km/h N-NW 9,1 C 12,6 C 13,7 km/h
18.11.2009 10:00 12,6 C 77 % 1023,7 hPa 0,0 l/m 2,4 km/h N-NW 8,6 C 12,6 C 9,6 km/h
18.11.2009 11:00 12,8 C 69 % 1023,8 hPa 0,0 l/m 4,0 km/h N-NW 7,3 C 12,8 C 12,9 km/h
18.11.2009 12:00 12,9 C 66 % 1023,7 hPa 0,0 l/m 3,2 km/h N-NW 6,7 C 12,9 C 15,3 km/h
18.11.2009 13:00 13,1 C 63 % 1023,6 hPa 0,0 l/m 0,8 km/h W-SW 6,1 C 13,1 C 7,3 km/h
18.11.2009 14:00 13,3 C 65 % 1023,3 hPa 0,0 l/m 0,8 km/h SW 6,7 C 13,3 C 6,4 km/h
18.11.2009 15:00 12,8 C 69 % 1023,1 hPa 0,0 l/m 1,5 km/h S 7,3 C 12,8 C 6,8 km/h
18.11.2009 16:00 11,5 C 73 % 1023,1 hPa 0,0 l/m 1,4 km/h S 6,8 C 11,5 C 4,8 km/h
18.11.2009 17:00 9,9 C 78 % 1023,2 hPa 0,0 l/m 0,2 km/h N 6,3 C 9,9 C 2,7 km/h
18.11.2009 18:00 8,6 C 81 % 1023,3 hPa 0,0 l/m 0,1 km/h N 5,4 C 8,6 C 2,0 km/h
18.11.2009 19:00 6,6 C 83 % 1023,5 hPa 0,0 l/m 0,1 km/h N 4,0 C 6,6 C 2,4 km/h
18.11.2009 20:00 6,1 C 86 % 1023,3 hPa 0,0 l/m 0,0 km/h N 4,0 C 6,1 C 0,4 km/h
18.11.2009 21:00 5,6 C 88 % 1023,7 hPa 0,0 l/m 0,1 km/h N 3,7 C 5,6 C 1,6 km/h
18.11.2009 22:00 5,1 C 88 % 1023,8 hPa 0,0 l/m 0,1 km/h N 3,3 C 5,1 C 2,0 km/h
18.11.2009 23:00 5,2 C 90 % 1024,1 hPa 0,0 l/m 0,3 km/h N 3,7 C 5,2 C 3,6 km/h
19.11.2009 00:00 4,9 C 90 % 1024,3 hPa 0,0 l/m 0,1 km/h N 3,4 C 4,9 C 2,4 km/h
19.11.2009 01:00 4,0 C 90 % 1024,0 hPa 0,0 l/m 0,2 km/h N 2,5 C 4,0 C 2,0 km/h
19.11.2009 02:00 3,6 C 90 % 1024,2 hPa 0,0 l/m 0,5 km/h N 2,1 C 3,6 C 3,6 km/h
19.11.2009 03:00 3,7 C 91 % 1024,6 hPa 0,0 l/m 0,6 km/h N 2,3 C 3,7 C 6,4 km/h
19.11.2009 04:00 6,9 C 92 % 1024,6 hPa 0,0 l/m 4,4 km/h SW 5,7 C 6,6 C 20,1 km/h
19.11.2009 05:00 11,1 C 70 % 1024,7 hPa 0,0 l/m 4,9 km/h W-SW 5,8 C 11,0 C 15,3 km/h
19.11.2009 06:00 11,1 C 65 % 1025,2 hPa 0,0 l/m 2,4 km/h W-SW 4,7 C 11,1 C 12,5 km/h
19.11.2009 07:00 8,7 C 70 % 1025,9 hPa 0,0 l/m 0,1 km/h N 3,4 C 8,7 C 2,4 km/h
19.11.2009 08:00 7,2 C 80 % 1026,6 hPa 0,0 l/m 0,0 km/h N 3,9 C 7,2 C 1,2 km/h
19.11.2009 09:00 8,8 C 81 % 1026,7 hPa 0,0 l/m 0,8 km/h O 5,7 C 8,8 C 3,7 km/h
19.11.2009 10:00 10,7 C 76 % 1027,2 hPa 0,0 l/m 1,6 km/h O 6,6 C 10,7 C 6,4 km/h
19.11.2009 11:00 13,0 C 67 % 1027,1 hPa 0,0 l/m 0,8 km/h O 6,9 C 13,0 C 4,8 km/h
19.11.2009 12:00 15,0 C 60 % 1026,6 hPa 0,0 l/m 2,4 km/h W-SW 7,2 C 15,0 C 8,9 km/h
19.11.2009 13:00 15,3 C 62 % 1025,9 hPa 0,0 l/m 1,6 km/h S 7,9 C 15,3 C 9,7 km/h
19.11.2009 14:00 14,3 C 66 % 1025,9 hPa 0,0 l/m 0,0 km/h N 7,9 C 14,3 C 1,6 km/h
19.11.2009 15:00 14,1 C 66 % 1026,1 hPa 0,0 l/m 0,0 km/h N 7,8 C 14,1 C 2,4 km/h
19.11.2009 16:00 11,6 C 73 % 1026,3 hPa 0,0 l/m 0,0 km/h N 6,9 C 11,6 C 0,8 km/h
19.11.2009 17:00 9,7 C 76 % 1026,3 hPa 0,0 l/m 0,0 km/h N 5,7 C 9,7 C 1,6 km/h
19.11.2009 18:00 7,7 C 80 % 1026,3 hPa 0,0 l/m 0,0 km/h N 4,5 C 7,7 C 1,6 km/h
19.11.2009 19:00 7,1 C 85 % 1026,1 hPa 0,0 l/m 0,0 km/h N 4,7 C 7,1 C 4,0 km/h
19.11.2009 20:00 6,2 C 85 % 1026,1 hPa 0,0 l/m 0,0 km/h N 3,8 C 6,2 C 3,2 km/h
19.11.2009 21:00 4,5 C 85 % 1026,4 hPa 0,0 l/m 0,0 km/h N 2,1 C 4,5 C 1,6 km/h
19.11.2009 22:00 4,3 C 87 % 1026,4 hPa 0,0 l/m 0,0 km/h N 2,3 C 4,3 C 1,6 km/h
19.11.2009 23:00 3,8 C 88 % 1026,6 hPa 0,0 l/m 0,0 km/h N 2,0 C 3,8 C 0,8 km/h
20.11.2009 00:00 3,3 C 89 % 1026,9 hPa 0,0 l/m 0,0 km/h N 1,6 C 3,3 C 0,5 km/h
20.11.2009 01:00 2,6 C 89 % 1027,1 hPa 0,0 l/m 0,0 km/h N 0,9 C 2,6 C 1,6 km/h
20.11.2009 02:00 2,0 C 89 % 1027,4 hPa 0,0 l/m 0,0 km/h N 0,4 C 2,0 C 0,0 km/h
20.11.2009 03:00 1,3 C 90 % 1027,4 hPa 0,0 l/m 0,0 km/h N -0,2 C 1,3 C 0,0 km/h
20.11.2009 04:00 1,0 C 90 % 1027,4 hPa 0,0 l/m 0,0 km/h N -0,5 C 1,0 C 0,0 km/h
20.11.2009 05:00 0,7 C 90 % 1027,3 hPa 0,0 l/m 0,0 km/h N -0,7 C 0,7 C 0,0 km/h
20.11.2009 06:00 0,5 C 90 % 1027,6 hPa 0,0 l/m 0,0 km/h N -0,9 C 0,5 C 0,4 km/h
20.11.2009 07:00 0,4 C 90 % 1027,8 hPa 0,0 l/m 0,0 km/h N -1,0 C 0,4 C 0,0 km/h
20.11.2009 08:00 1,5 C 91 % 1028,2 hPa 0,0 l/m 0,0 km/h N 0,2 C 1,5 C 0,0 km/h
20.11.2009 09:00 4,0 C 92 % 1028,1 hPa 0,0 l/m 0,1 km/h N 2,9 C 4,0 C 0,8 km/h
20.11.2009 10:00 6,9 C 84 % 1027,9 hPa 0,0 l/m 1,3 km/h O-SO 4,4 C 6,9 C 4,4 km/h
20.11.2009 11:00 8,5 C 80 % 1027,5 hPa 0,0 l/m 2,5 km/h O-NO 5,3 C 8,5 C 6,4 km/h
20.11.2009 12:00 9,2 C 81 % 1027,0 hPa 0,0 l/m 2,4 km/h O 6,1 C 9,2 C 6,4 km/h
20.11.2009 13:00 7,7 C 88 % 1026,9 hPa 0,0 l/m 4,1 km/h O 5,9 C 7,7 C 7,6 km/h
20.11.2009 14:00 7,0 C 91 % 1026,9 hPa 0,0 l/m 1,6 km/h O 5,7 C 7,0 C 4,8 km/h
20.11.2009 15:00 6,8 C 92 % 1026,8 hPa 0,0 l/m 0,8 km/h N 5,6 C 6,8 C 3,6 km/h
20.11.2009 16:00 6,4 C 92 % 1026,9 hPa 0,0 l/m 0,2 km/h N 5,2 C 6,4 C 2,0 km/h
20.11.2009 17:00 6,3 C 92 % 1027,3 hPa 0,0 l/m 0,3 km/h N 5,1 C 6,3 C 2,8 km/h
20.11.2009 18:00 6,3 C 93 % 1027,6 hPa 0,0 l/m 0,7 km/h O 5,2 C 6,3 C 4,4 km/h
20.11.2009 19:00 6,1 C 93 % 1027,7 hPa 0,0 l/m 0,3 km/h N 5,0 C 6,1 C 2,8 km/h
20.11.2009 20:00 6,1 C 93 % 1027,8 hPa 0,0 l/m 0,0 km/h N 5,0 C 6,1 C 0,0 km/h
20.11.2009 21:00 6,1 C 93 % 1027,8 hPa 0,0 l/m 0,5 km/h S-SW 5,1 C 6,1 C 3,6 km/h
20.11.2009 22:00 6,2 C 93 % 1027,8 hPa 0,0 l/m 1,0 km/h W-SW 5,2 C 6,2 C 4,8 km/h
20.11.2009 23:00 6,3 C 93 % 1028,1 hPa 0,0 l/m 0,5 km/h N 5,3 C 6,3 C 4,0 km/h
21.11.2009 00:00 6,2 C 93 % 1028,1 hPa 0,0 l/m 0,5 km/h N 5,1 C 6,2 C 4,0 km/h
21.11.2009 01:00 5,8 C 93 % 1028,3 hPa 0,0 l/m 0,1 km/h N 4,8 C 5,8 C 1,6 km/h
21.11.2009 02:00 5,6 C 93 % 1028,7 hPa 0,0 l/m 0,1 km/h N 4,6 C 5,6 C 2,0 km/h
21.11.2009 03:00 5,6 C 93 % 1028,6 hPa 0,0 l/m 0,2 km/h N 4,5 C 5,6 C 2,4 km/h
21.11.2009 04:00 5,4 C 93 % 1028,8 hPa 0,0 l/m 0,2 km/h N 4,4 C 5,4 C 2,0 km/h
21.11.2009 05:00 5,2 C 93 % 1029,0 hPa 0,0 l/m 0,0 km/h N 4,1 C 5,2 C 0,4 km/h
21.11.2009 06:00 5,2 C 93 % 1029,0 hPa 0,0 l/m 0,1 km/h N 4,2 C 5,2 C 2,4 km/h
21.11.2009 07:00 5,4 C 93 % 1029,3 hPa 0,0 l/m 0,0 km/h N 4,4 C 5,4 C 1,2 km/h
21.11.2009 08:00 5,6 C 93 % 1029,8 hPa 0,0 l/m 0,2 km/h SW 4,6 C 5,6 C 2,8 km/h
21.11.2009 09:00 5,8 C 93 % 1030,0 hPa 0,0 l/m 0,6 km/h N 4,8 C 5,8 C 4,0 km/h
21.11.2009 10:00 6,1 C 94 % 1030,2 hPa 0,0 l/m 0,2 km/h N 5,2 C 6,1 C 2,4 km/h
21.11.2009 11:00 7,0 C 92 % 1030,0 hPa 0,0 l/m 0,2 km/h N 5,8 C 7,0 C 2,4 km/h
21.11.2009 12:00 7,6 C 90 % 1029,4 hPa 0,0 l/m 0,2 km/h N 6,0 C 7,6 C 3,2 km/h
21.11.2009 13:00 7,3 C 89 % 1028,9 hPa 0,0 l/m 0,4 km/h N 5,6 C 7,3 C 3,6 km/h
21.11.2009 14:00 7,0 C 90 % 1028,7 hPa 0,0 l/m 0,3 km/h N 5,4 C 7,0 C 3,6 km/h
21.11.2009 15:00 6,8 C 90 % 1028,5 hPa 0,0 l/m 0,3 km/h N 5,3 C 6,8 C 3,6 km/h
21.11.2009 16:00 6,4 C 90 % 1028,3 hPa 0,0 l/m 0,7 km/h S-SO 4,9 C 6,4 C 6,4 km/h
21.11.2009 17:00 5,9 C 90 % 1028,1 hPa 0,0 l/m 0,1 km/h N 4,4 C 5,9 C 2,4 km/h
21.11.2009 18:00 5,3 C 91 % 1028,1 hPa 0,0 l/m 0,2 km/h N 3,8 C 5,3 C 3,6 km/h
21.11.2009 19:00 5,0 C 91 % 1027,9 hPa 0,0 l/m 0,6 km/h N 3,6 C 5,0 C 4,4 km/h
21.11.2009 20:00 4,7 C 91 % 1027,4 hPa 0,0 l/m 0,5 km/h N 3,4 C 4,7 C 5,6 km/h
21.11.2009 21:00 4,5 C 92 % 1027,2 hPa 0,0 l/m 0,8 km/h S 3,2 C 4,5 C 6,4 km/h
21.11.2009 22:00 4,4 C 92 % 1026,4 hPa 0,0 l/m 0,6 km/h S 3,2 C 4,4 C 6,0 km/h
21.11.2009 23:00 4,4 C 92 % 1025,9 hPa 0,0 l/m 0,5 km/h N 3,2 C 4,4 C 4,4 km/h
22.11.2009 00:00 4,5 C 92 % 1025,3 hPa 0,0 l/m 0,4 km/h S-SO 3,3 C 4,5 C 5,6 km/h
22.11.2009 01:00 4,4 C 92 % 1024,8 hPa 0,0 l/m 1,3 km/h S 3,2 C 4,4 C 6,8 km/h
22.11.2009 02:00 4,3 C 93 % 1024,0 hPa 0,3 l/m 2,5 km/h S 3,3 C 4,3 C 8,4 km/h
22.11.2009 03:00 4,3 C 93 % 1023,3 hPa 0,0 l/m 0,9 km/h S 3,3 C 4,3 C 5,2 km/h
22.11.2009 04:00 4,4 C 93 % 1022,7 hPa 0,0 l/m 1,0 km/h S-SO 3,4 C 4,4 C 8,0 km/h
22.11.2009 05:00 4,1 C 93 % 1021,9 hPa 0,3 l/m 1,5 km/h S-SO 3,1 C 4,1 C 11,3 km/h
22.11.2009 06:00 3,8 C 93 % 1021,2 hPa 0,0 l/m 1,9 km/h O-SO 2,7 C 3,8 C 10,1 km/h
22.11.2009 07:00 3,6 C 93 % 1021,0 hPa 0,0 l/m 1,0 km/h S 2,5 C 3,6 C 8,8 km/h
22.11.2009 08:00 3,4 C 93 % 1020,9 hPa 0,0 l/m 1,1 km/h S-SO 2,4 C 3,4 C 6,8 km/h
22.11.2009 09:00 3,4 C 93 % 1020,5 hPa 0,0 l/m 0,9 km/h N 2,4 C 3,4 C 5,6 km/h
22.11.2009 10:00 3,5 C 93 % 1020,5 hPa 0,0 l/m 0,8 km/h N 2,5 C 3,5 C 6,4 km/h
22.11.2009 11:00 3,4 C 93 % 1020,6 hPa 0,0 l/m 0,6 km/h W-SW 2,4 C 3,4 C 5,2 km/h
22.11.2009 12:00 3,6 C 94 % 1020,8 hPa 0,0 l/m 1,0 km/h W-SW 2,6 C 3,6 C 6,0 km/h
22.11.2009 13:00 3,8 C 94 % 1020,0 hPa 0,0 l/m 0,9 km/h N-NO 2,9 C 3,8 C 4,4 km/h
22.11.2009 14:00 4,2 C 94 % 1019,7 hPa 0,0 l/m 0,4 km/h N 3,3 C 4,2 C 2,8 km/h
22.11.2009 15:00 4,4 C 94 % 1019,5 hPa 0,0 l/m 0,1 km/h N 3,5 C 4,4 C 1,6 km/h
22.11.2009 16:00 4,4 C 93 % 1019,3 hPa 0,0 l/m 0,2 km/h N 3,4 C 4,4 C 3,2 km/h
22.11.2009 17:00 4,4 C 93 % 1019,7 hPa 0,0 l/m 0,0 km/h N 3,3 C 4,4 C 0,8 km/h
22.11.2009 18:00 4,3 C 93 % 1019,5 hPa 0,0 l/m 0,0 km/h N 3,3 C 4,3 C 0,4 km/h
22.11.2009 19:00 4,4 C 93 % 1019,3 hPa 0,0 l/m 0,2 km/h N 3,4 C 4,4 C 3,6 km/h
22.11.2009 20:00 4,4 C 93 % 1019,2 hPa 0,0 l/m 0,2 km/h N 3,4 C 4,4 C 3,2 km/h
22.11.2009 21:00 4,4 C 93 % 1018,9 hPa 0,0 l/m 0,0 km/h N 3,4 C 4,4 C 0,4 km/h
22.11.2009 22:00 4,4 C 93 % 1018,6 hPa 0,0 l/m 0,0 km/h N 3,4 C 4,4 C 0,4 km/h
22.11.2009 23:00 4,2 C 93 % 1018,4 hPa 0,0 l/m 0,2 km/h N 3,1 C 4,2 C 3,6 km/h
Min-Datum _ 20.11.09 19.11.09 16.11.09 - 16.11.09 - 20.11.09 20.11.09 16.11.09
_ Min-Zeit 06:15 12:30 03:45 - 00:00 - 06:15 06:15 00:00
Minimum _ 0,4 C 59 % 1014,2 hPa - 0,0 km/h - -1,0 C 0,4 C 0,0 km/h
Max-Datum _ 18.11.09 18.11.09 21.11.09 22.11.09 18.11.09 - 18.11.09 19.11.09 18.11.09
_ Max-Zeit 03:15 02:15 10:30 02:00 05:00 - 02:45 13:00 04:15
Maximum _ 17,6 C 95 % 1030,3 hPa 0,3 l/m 19,4 km/h
W-SW
- 11,9 C 15,6 C 41,8 km/h
S-SW
Durchschnitt _ 7,2 C 87 % 1022,2 hPa #0,5 l/m 1,0 km/h S 5,0 C 7,1 C 4,6 km/h